Time;durP1;ratioP1;P1;durP2;ratioP2;P2;SDS_P1;SDS_P2;PMS_P1;PMS_P2;Temp;Humidity;BMP_temperature;BMP_pressure;BME280_temperature;BME280_humidity;BME280_pressure;Samples;Min_cycle;Max_cycle;Signal;HPM_P1;HPM_P2
2022/01/04 00:00:20;;;;;;;;;;;9.50;99.90;;;;;;5035853;28;19975;-73
2022/01/04 00:02:52;;;;;;;;;;;9.40;99.90;;;;;;5040077;28;19925;-71
2022/01/04 00:05:18;;;;;;;;;;;9.40;99.90;;;;;;5035921;28;20016;-72
2022/01/04 00:07:50;;;;;;;;;;;9.40;99.90;;;;;;5036830;28;20023;-73
2022/01/04 00:10:23;;;;;;;;;;;9.40;99.90;;;;;;5037326;28;20470;-72
2022/01/04 00:15:43;;;;;;;;;;;9.40;99.90;;;;;;5053560;28;19967;-72
2022/01/04 00:18:10;;;;;;;;;;;9.50;99.90;;;;;;5017068;28;19920;-71
2022/01/04 00:20:37;;;;;;;;;;;9.50;99.90;;;;;;5035804;28;19920;-72
2022/01/04 00:23:03;;;;;;;;;;;9.50;99.90;;;;;;5053482;28;20345;-71
2022/01/04 00:25:30;;;;;;;;;;;9.50;99.90;;;;;;5035917;28;20020;-71
2022/01/04 00:28:06;;;;;;;;;;;9.50;99.90;;;;;;5053337;28;20031;-72
2022/01/04 00:30:37;;;;;;;;;;;9.50;99.90;;;;;;5019227;28;20452;-72
2022/01/04 00:33:04;;;;;;;;;;;9.50;99.90;;;;;;5052730;28;19974;-71
2022/01/04 00:35:31;;;;;;;;;;;9.50;99.90;;;;;;5018853;28;20019;-72
2022/01/04 00:37:58;;;;;;;;;;;9.50;99.90;;;;;;5035439;28;20308;-71
2022/01/04 00:40:25;;;;;;;;;;;9.50;99.90;;;;;;5053240;28;19967;-71
2022/01/04 00:43:00;;;;;;;;;;;9.50;99.90;;;;;;5052680;28;20346;-72
2022/01/04 00:45:33;;;;;;;;;;;9.50;99.90;;;;;;5015922;28;20001;-72
2022/01/04 00:50:30;;;;;;;;;;;9.40;99.90;;;;;;5031492;28;20453;-71
2022/01/04 00:52:57;;;;;;;;;;;9.50;99.90;;;;;;5031684;28;20023;-72
2022/01/04 00:55:29;;;;;;;;;;;9.50;99.90;;;;;;5034060;28;20011;-71
2022/01/04 00:58:02;;;;;;;;;;;9.50;99.90;;;;;;5050984;28;19920;-72
2022/01/04 01:00:33;;;;;;;;;;;9.60;99.90;;;;;;5052818;28;20011;-72
2022/01/04 01:03:06;;;;;;;;;;;9.60;99.90;;;;;;5034519;28;19921;-72
2022/01/04 01:05:33;;;;;;;;;;;9.60;99.90;;;;;;5034972;28;19952;-72
2022/01/04 01:08:05;;;;;;;;;;;9.60;99.90;;;;;;5035680;28;19971;-72
2022/01/04 01:12:58;;;;;;;;;;;9.60;99.90;;;;;;5052364;28;19921;-72
2022/01/04 01:15:25;;;;;;;;;;;9.60;99.90;;;;;;5034575;28;19959;-72
2022/01/04 01:17:57;;;;;;;;;;;9.70;99.90;;;;;;5034595;28;20020;-72
2022/01/04 01:20:23;;;;;;;;;;;9.60;99.90;;;;;;5018133;28;20012;-72
2022/01/04 01:22:55;;;;;;;;;;;9.60;99.90;;;;;;5052392;28;19962;-72
2022/01/04 01:25:22;;;;;;;;;;;9.60;99.90;;;;;;5034687;28;19967;-72
2022/01/04 01:27:49;;;;;;;;;;;9.60;99.90;;;;;;5052267;28;20019;-73
2022/01/04 01:30:21;;;;;;;;;;;9.60;99.90;;;;;;5052564;28;20015;-72
2022/01/04 01:32:49;;;;;;;;;;;9.70;99.90;;;;;;5051897;28;19967;-72
2022/01/04 01:35:20;;;;;;;;;;;9.70;99.90;;;;;;5034465;28;20031;-71
2022/01/04 01:37:52;;;;;;;;;;;9.80;99.90;;;;;;5034304;28;19927;-72
2022/01/04 01:40:24;;;;;;;;;;;9.80;99.90;;;;;;5034362;28;19921;-72
2022/01/04 01:42:51;;;;;;;;;;;9.80;99.90;;;;;;5051848;28;20119;-72
2022/01/04 01:45:23;;;;;;;;;;;9.80;99.90;;;;;;5033960;28;20011;-72
2022/01/04 01:47:55;;;;;;;;;;;9.80;99.90;;;;;;5052031;28;19921;-72
2022/01/04 01:50:27;;;;;;;;;;;9.70;99.90;;;;;;5034109;28;19999;-72
2022/01/04 01:52:59;;;;;;;;;;;9.70;99.90;;;;;;5034929;28;20023;-72
2022/01/04 01:55:31;;;;;;;;;;;9.70;99.90;;;;;;5034025;28;19921;-72
2022/01/04 01:58:03;;;;;;;;;;;9.70;99.90;;;;;;5051833;28;20020;-72
2022/01/04 02:00:35;;;;;;;;;;;9.70;99.90;;;;;;5036887;28;19999;-72
2022/01/04 02:03:02;;;;;;;;;;;9.60;99.90;;;;;;5034784;28;20015;-72
2022/01/04 02:05:34;;;;;;;;;;;9.70;99.90;;;;;;5051084;28;20007;-72
2022/01/04 02:08:06;;;;;;;;;;;9.70;99.90;;;;;;5034189;28;20011;-71
2022/01/04 02:10:38;;;;;;;;;;;9.70;99.90;;;;;;5051193;28;19927;-72
2022/01/04 02:13:10;;;;;;;;;;;9.70;99.90;;;;;;5033141;28;19971;-72
2022/01/04 02:15:42;;;;;;;;;;;9.60;99.90;;;;;;5033171;28;19920;-73
2022/01/04 02:18:13;;;;;;;;;;;9.60;99.90;;;;;;5033918;28;19982;-71
2022/01/04 02:20:40;;;;;;;;;;;9.50;99.90;;;;;;5033630;28;20015;-72
2022/01/04 02:23:07;;;;;;;;;;;9.50;99.90;;;;;;5051422;28;20345;-72
2022/01/04 02:25:38;;;;;;;;;;;9.50;99.90;;;;;;5033763;28;20019;-72
2022/01/04 02:28:05;;;;;;;;;;;9.50;99.90;;;;;;5033544;28;19964;-71
2022/01/04 02:30:37;;;;;;;;;;;9.50;99.90;;;;;;5033229;28;19964;-72
2022/01/04 02:33:09;;;;;;;;;;;9.50;99.90;;;;;;5050704;28;20463;-72
2022/01/04 02:35:40;;;;;;;;;;;9.40;99.90;;;;;;5050755;28;19920;-72
2022/01/04 02:38:12;;;;;;;;;;;9.40;99.90;;;;;;5050654;28;20023;-72
2022/01/04 02:40:44;;;;;;;;;;;9.40;99.90;;;;;;5017276;28;20015;-72
2022/01/04 02:43:11;;;;;;;;;;;9.40;99.90;;;;;;5032941;28;20028;-72
2022/01/04 02:45:37;;;;;;;;;;;9.40;99.90;;;;;;5050928;28;19920;-74
2022/01/04 02:48:04;;;;;;;;;;;9.30;99.90;;;;;;5033289;28;19964;-72
2022/01/04 02:50:36;;;;;;;;;;;9.30;99.90;;;;;;5033378;28;19920;-73
2022/01/04 02:53:02;;;;;;;;;;;9.30;99.90;;;;;;5033065;28;19930;-72
2022/01/04 02:55:29;;;;;;;;;;;9.20;99.90;;;;;;5033498;28;19943;-72
2022/01/04 02:58:00;;;;;;;;;;;9.30;99.90;;;;;;5017308;28;19920;-72
2022/01/04 03:00:32;;;;;;;;;;;9.30;99.90;;;;;;5051179;28;20015;-72
2022/01/04 03:03:04;;;;;;;;;;;9.20;99.90;;;;;;5051014;28;20016;-72
2022/01/04 03:05:30;;;;;;;;;;;9.20;99.90;;;;;;5051134;28;19978;-74
2022/01/04 03:08:02;;;;;;;;;;;9.20;99.90;;;;;;5034079;28;19960;-72
2022/01/04 03:10:35;;;;;;;;;;;9.20;99.90;;;;;;5051014;28;19920;-72
2022/01/04 03:13:07;;;;;;;;;;;9.20;99.90;;;;;;5034003;28;20362;-72
2022/01/04 03:15:39;;;;;;;;;;;9.20;99.90;;;;;;5051016;28;19956;-72
2022/01/04 03:18:10;;;;;;;;;;;9.20;99.90;;;;;;5035667;28;20035;-72
2022/01/04 03:20:42;;;;;;;;;;;9.20;99.90;;;;;;5037922;28;19921;-72
2022/01/04 03:23:14;;;;;;;;;;;9.20;99.90;;;;;;5036776;28;19960;-73
2022/01/04 03:25:40;;;;;;;;;;;9.20;99.90;;;;;;5034694;28;19987;-72
2022/01/04 03:28:13;;;;;;;;;;;9.20;99.90;;;;;;5017835;28;19976;-72
2022/01/04 03:30:45;;;;;;;;;;;9.20;99.90;;;;;;5018011;28;20004;-72
2022/01/04 03:33:17;;;;;;;;;;;9.20;99.90;;;;;;5036412;28;20019;-71
2022/01/04 03:35:43;;;;;;;;;;;9.20;99.90;;;;;;5036564;28;20058;-72
2022/01/04 03:38:10;;;;;;;;;;;9.10;99.90;;;;;;5036689;28;20015;-71
2022/01/04 03:40:37;;;;;;;;;;;9.10;99.90;;;;;;5036660;28;20111;-75
2022/01/04 03:43:08;;;;;;;;;;;9.10;99.90;;;;;;5054029;28;20007;-72
2022/01/04 03:45:40;;;;;;;;;;;9.10;99.90;;;;;;5037439;28;20332;-72
2022/01/04 03:48:07;;;;;;;;;;;9.20;99.90;;;;;;5036586;28;20354;-72
2022/01/04 03:50:39;;;;;;;;;;;9.20;99.90;;;;;;5020720;28;20015;-72
2022/01/04 03:53:06;;;;;;;;;;;9.20;99.90;;;;;;5036289;28;19974;-72
2022/01/04 03:55:37;;;;;;;;;;;9.10;99.90;;;;;;5037125;28;20019;-72
2022/01/04 03:58:04;;;;;;;;;;;9.10;99.90;;;;;;5036138;28;20453;-72
2022/01/04 04:00:36;;;;;;;;;;;9.10;99.90;;;;;;5054167;28;20020;-73
2022/01/04 04:03:03;;;;;;;;;;;9.10;99.90;;;;;;5035862;28;19960;-72
2022/01/04 04:05:29;;;;;;;;;;;9.10;99.90;;;;;;5036218;28;20345;-72
2022/01/04 04:07:56;;;;;;;;;;;9.20;99.90;;;;;;5053896;28;19956;-72
2022/01/04 04:10:22;;;;;;;;;;;9.30;99.90;;;;;;5053962;28;19978;-73
2022/01/04 04:12:49;;;;;;;;;;;9.40;99.90;;;;;;5035730;28;20007;-71
2022/01/04 04:15:16;;;;;;;;;;;9.40;99.90;;;;;;5019457;28;19966;-71
2022/01/04 04:17:47;;;;;;;;;;;9.40;99.90;;;;;;5036629;28;20019;-72
2022/01/04 04:20:20;;;;;;;;;;;9.40;99.90;;;;;;5020050;28;19966;-73
2022/01/04 04:22:47;;;;;;;;;;;9.40;99.90;;;;;;5035622;28;19971;-72
2022/01/04 04:25:19;;;;;;;;;;;9.50;99.90;;;;;;5035686;28;20377;-72
2022/01/04 04:27:50;;;;;;;;;;;9.60;99.90;;;;;;5053481;28;20012;-72
2022/01/04 04:30:17;;;;;;;;;;;9.70;99.90;;;;;;5053288;28;19921;-72
2022/01/04 04:32:44;;;;;;;;;;;9.90;99.90;;;;;;5019048;28;20011;-71
2022/01/04 04:35:10;;;;;;;;;;;10.10;99.90;;;;;;5035339;28;19920;-73
2022/01/04 04:37:42;;;;;;;;;;;10.10;99.90;;;;;;5053343;28;20011;-71
2022/01/04 04:40:09;;;;;;;;;;;10.20;99.90;;;;;;5053373;28;19920;-73
2022/01/04 04:42:36;;;;;;;;;;;10.30;99.90;;;;;;5053217;28;20020;-71
2022/01/04 04:45:03;;;;;;;;;;;10.40;99.90;;;;;;5035234;28;20118;-71
2022/01/04 04:47:30;;;;;;;;;;;10.40;99.90;;;;;;5053165;28;19921;-72
2022/01/04 04:49:56;;;;;;;;;;;10.40;99.90;;;;;;5034772;28;20356;-71
2022/01/04 04:52:23;;;;;;;;;;;10.50;99.90;;;;;;5034804;28;19932;-73
2022/01/04 04:54:50;;;;;;;;;;;10.50;99.90;;;;;;5034934;28;19971;-72
2022/01/04 04:57:21;;;;;;;;;;;10.70;99.90;;;;;;5034494;28;19925;-72
2022/01/04 04:59:53;;;;;;;;;;;10.70;99.90;;;;;;5031144;28;19964;-72
2022/01/04 05:02:25;;;;;;;;;;;10.70;99.90;;;;;;5032262;28;20079;-74
2022/01/04 05:04:57;;;;;;;;;;;10.70;99.90;;;;;;5035270;28;20385;-72
2022/01/04 05:07:23;;;;;;;;;;;10.60;99.90;;;;;;5034427;28;20457;-72
2022/01/04 05:09:50;;;;;;;;;;;10.50;99.90;;;;;;5032397;28;19948;-71
2022/01/04 05:12:22;;;;;;;;;;;10.40;99.90;;;;;;5032148;28;20023;-72
2022/01/04 05:14:48;;;;;;;;;;;10.20;99.90;;;;;;5030756;28;19959;-72
2022/01/04 05:17:15;;;;;;;;;;;10.10;99.90;;;;;;5014329;28;19921;-73
2022/01/04 05:19:47;;;;;;;;;;;9.90;99.90;;;;;;5032096;28;19952;-72
2022/01/04 05:22:14;;;;;;;;;;;9.90;99.90;;;;;;4997952;28;20024;-72
2022/01/04 05:24:45;;;;;;;;;;;9.90;99.90;;;;;;5037760;28;20360;-73
2022/01/04 05:27:12;;;;;;;;;;;10.00;99.90;;;;;;5017458;28;20019;-72
2022/01/04 05:29:39;;;;;;;;;;;10.00;99.90;;;;;;5034094;28;19999;-72
2022/01/04 05:32:10;;;;;;;;;;;10.10;99.90;;;;;;5033896;28;20475;-72
2022/01/04 05:34:42;;;;;;;;;;;10.20;99.90;;;;;;5034061;28;19974;-73
2022/01/04 05:37:14;;;;;;;;;;;10.20;99.90;;;;;;5035337;28;20018;-72
2022/01/04 05:39:40;;;;;;;;;;;10.20;99.90;;;;;;5033890;28;19921;-74
2022/01/04 05:42:12;;;;;;;;;;;10.20;99.90;;;;;;5033939;28;20016;-71
2022/01/04 05:44:44;;;;;;;;;;;10.20;99.90;;;;;;5035067;28;19974;-72
2022/01/04 05:47:10;;;;;;;;;;;10.10;99.90;;;;;;5034220;28;19921;-72
2022/01/04 05:49:42;;;;;;;;;;;10.10;99.90;;;;;;5052100;28;19956;-72
2022/01/04 05:52:09;;;;;;;;;;;10.00;99.90;;;;;;5052084;28;19956;-72
2022/01/04 05:54:42;;;;;;;;;;;10.00;99.90;;;;;;5018215;28;20444;-72
2022/01/04 05:57:14;;;;;;;;;;;9.90;99.90;;;;;;5051825;28;19956;-72
2022/01/04 05:59:46;;;;;;;;;;;9.80;99.90;;;;;;5029379;28;19927;-73
2022/01/04 06:02:17;;;;;;;;;;;9.70;99.90;;;;;;5033908;28;19956;-72
2022/01/04 06:04:44;;;;;;;;;;;9.70;99.90;;;;;;5017444;28;20026;-72
2022/01/04 06:07:16;;;;;;;;;;;9.70;99.90;;;;;;5051644;28;20035;-72
2022/01/04 06:09:50;;;;;;;;;;;9.60;99.90;;;;;;5033356;28;19984;-73
2022/01/04 06:14:59;;;;;;;;;;;9.60;99.90;;;;;;5029800;28;19956;-73
2022/01/04 06:17:32;;;;;;;;;;;9.60;99.90;;;;;;5032222;28;19921;-72
2022/01/04 06:19:59;;;;;;;;;;;9.60;99.90;;;;;;5033633;28;19974;-73
2022/01/04 06:22:26;;;;;;;;;;;9.60;99.90;;;;;;5033095;28;20019;-72
2022/01/04 06:24:58;;;;;;;;;;;9.60;99.90;;;;;;5034527;28;20011;-73
2022/01/04 06:27:25;;;;;;;;;;;9.50;99.90;;;;;;5051044;28;19956;-72
2022/01/04 06:29:52;;;;;;;;;;;9.50;99.90;;;;;;5033550;28;19920;-72
2022/01/04 06:32:18;;;;;;;;;;;9.50;99.90;;;;;;5033814;28;20449;-73
2022/01/04 06:34:45;;;;;;;;;;;9.60;99.90;;;;;;5033394;28;19983;-73
2022/01/04 06:37:17;;;;;;;;;;;9.70;99.90;;;;;;5033449;28;19952;-72
2022/01/04 06:39:48;;;;;;;;;;;9.70;99.90;;;;;;5032925;28;19929;-72
2022/01/04 06:42:20;;;;;;;;;;;9.80;99.90;;;;;;5033309;28;19920;-72
2022/01/04 06:44:47;;;;;;;;;;;9.80;99.90;;;;;;5051062;28;20465;-72
2022/01/04 06:47:14;;;;;;;;;;;9.80;99.90;;;;;;5031977;28;19987;-73
2022/01/04 06:49:40;;;;;;;;;;;9.90;99.90;;;;;;5046400;28;20113;-72
2022/01/04 06:52:12;;;;;;;;;;;9.90;99.90;;;;;;5034581;28;20024;-72
2022/01/04 06:54:39;;;;;;;;;;;9.90;99.90;;;;;;5036680;28;20585;-73
2022/01/04 06:57:10;;;;;;;;;;;9.80;99.90;;;;;;5036914;28;20023;-72
2022/01/04 06:59:42;;;;;;;;;;;9.80;99.90;;;;;;5037226;28;20314;-72
2022/01/04 07:02:10;;;;;;;;;;;9.70;99.90;;;;;;5054320;28;20452;-72
2022/01/04 07:04:36;;;;;;;;;;;9.80;99.90;;;;;;5036977;28;19947;-73
2022/01/04 07:07:03;;;;;;;;;;;9.80;99.90;;;;;;5037015;28;19982;-73
2022/01/04 07:09:35;;;;;;;;;;;9.80;99.90;;;;;;5035323;28;20016;-73
2022/01/04 07:12:01;;;;;;;;;;;9.80;99.90;;;;;;5054641;28;20015;-72
2022/01/04 07:14:33;;;;;;;;;;;9.80;99.90;;;;;;5054439;28;20015;-72
2022/01/04 07:17:00;;;;;;;;;;;9.80;99.90;;;;;;5036850;28;20011;-73
2022/01/04 07:19:32;;;;;;;;;;;9.90;99.90;;;;;;5053405;28;20588;-73
2022/01/04 07:21:58;;;;;;;;;;;9.90;99.90;;;;;;5057407;28;20015;-73
2022/01/04 07:24:30;;;;;;;;;;;9.90;99.90;;;;;;5033713;28;20389;-73
2022/01/04 07:27:02;;;;;;;;;;;9.90;99.90;;;;;;5024465;28;20367;-72
2022/01/04 07:29:28;;;;;;;;;;;9.90;99.90;;;;;;5036515;28;20356;-73
2022/01/04 07:31:55;;;;;;;;;;;9.90;99.90;;;;;;5036614;28;19963;-72
2022/01/04 07:34:22;;;;;;;;;;;10.00;99.90;;;;;;5004331;28;19955;-73
2022/01/04 07:36:49;;;;;;;;;;;10.00;99.90;;;;;;5038048;28;19971;-72
2022/01/04 07:39:15;;;;;;;;;;;10.00;99.90;;;;;;5016540;28;19971;-72
2022/01/04 07:41:47;;;;;;;;;;;10.00;99.90;;;;;;5015556;28;20339;-73
2022/01/04 07:44:14;;;;;;;;;;;10.00;99.90;;;;;;5057375;28;20019;-73
2022/01/04 07:46:45;;;;;;;;;;;9.90;99.90;;;;;;5053652;28;19921;-73
2022/01/04 07:49:12;;;;;;;;;;;9.90;99.90;;;;;;5023618;28;20018;-72
2022/01/04 07:51:38;;;;;;;;;;;9.80;99.90;;;;;;5037438;28;19960;-72
2022/01/04 07:54:10;;;;;;;;;;;9.80;99.90;;;;;;5061854;28;19956;-73
2022/01/04 07:56:38;;;;;;;;;;;9.80;99.90;;;;;;5042212;28;20019;-73
2022/01/04 07:59:05;;;;;;;;;;;9.80;99.90;;;;;;5017592;28;19971;-73
2022/01/04 08:01:32;;;;;;;;;;;9.80;99.90;;;;;;5018741;28;19956;-73
2022/01/04 08:04:07;;;;;;;;;;;9.90;99.90;;;;;;5043130;28;19956;-72
2022/01/04 08:06:34;;;;;;;;;;;9.90;99.90;;;;;;5006312;28;20027;-73
2022/01/04 08:09:05;;;;;;;;;;;9.90;99.90;;;;;;5021855;28;20316;-72
2022/01/04 08:11:37;;;;;;;;;;;9.90;99.90;;;;;;5041853;28;19968;-74
2022/01/04 08:14:09;;;;;;;;;;;10.00;99.90;;;;;;5051190;28;19927;-73
2022/01/04 08:16:41;;;;;;;;;;;10.10;99.90;;;;;;5031136;28;19947;-73
2022/01/04 08:19:08;;;;;;;;;;;10.10;99.90;;;;;;5027302;28;20010;-73
2022/01/04 08:21:39;;;;;;;;;;;10.10;99.90;;;;;;5002530;28;19921;-73
2022/01/04 08:24:06;;;;;;;;;;;10.30;99.90;;;;;;5049372;28;20015;-73
2022/01/04 08:26:38;;;;;;;;;;;10.30;99.90;;;;;;5070869;28;19967;-73
2022/01/04 08:29:04;;;;;;;;;;;10.40;99.90;;;;;;5035385;28;20389;-74
2022/01/04 08:31:31;;;;;;;;;;;10.50;99.90;;;;;;5029948;28;19982;-72
2022/01/04 08:34:03;;;;;;;;;;;10.60;99.90;;;;;;5039641;28;19967;-73
2022/01/04 08:36:36;;;;;;;;;;;10.70;99.90;;;;;;5030609;28;19921;-73
2022/01/04 08:39:03;;;;;;;;;;;10.80;99.90;;;;;;5034679;28;19960;-73
2022/01/04 08:41:36;;;;;;;;;;;11.00;99.90;;;;;;5040015;28;20027;-73
2022/01/04 08:44:03;;;;;;;;;;;11.00;99.90;;;;;;5034839;28;19956;-73
2022/01/04 08:46:36;;;;;;;;;;;11.20;99.90;;;;;;5033954;28;19971;-73
2022/01/04 08:49:03;;;;;;;;;;;11.20;99.90;;;;;;5025947;28;20031;-72
2022/01/04 08:51:35;;;;;;;;;;;11.30;99.90;;;;;;5034054;28;19925;-72
2022/01/04 08:54:07;;;;;;;;;;;11.30;99.90;;;;;;5026707;28;19960;-73
2022/01/04 08:56:34;;;;;;;;;;;11.40;99.90;;;;;;5047436;28;20292;-73
2022/01/04 08:59:08;;;;;;;;;;;11.40;99.90;;;;;;5018764;28;20455;-73
2022/01/04 09:01:40;;;;;;;;;;;11.50;99.90;;;;;;5014360;28;20003;-73
2022/01/04 09:04:11;;;;;;;;;;;11.50;99.90;;;;;;5016376;28;19928;-73
2022/01/04 09:06:38;;;;;;;;;;;11.60;99.90;;;;;;5024193;28;19968;-73
2022/01/04 09:09:05;;;;;;;;;;;11.60;99.90;;;;;;5033044;28;19921;-73
2022/01/04 09:11:37;;;;;;;;;;;11.70;99.90;;;;;;5019964;28;20011;-73
2022/01/04 09:19:31;;;;;;;;;;;11.90;99.90;;;;;;5031533;28;20464;-73
2022/01/04 09:21:57;;;;;;;;;;;12.00;99.90;;;;;;5034674;28;19956;-73
2022/01/04 09:24:29;;;;;;;;;;;12.00;99.90;;;;;;5033754;28;19927;-72
2022/01/04 09:26:56;;;;;;;;;;;12.00;99.90;;;;;;5034587;28;20015;-74
2022/01/04 09:29:28;;;;;;;;;;;12.00;99.90;;;;;;5035448;28;19920;-73
2022/01/04 09:31:55;;;;;;;;;;;12.10;99.90;;;;;;5017828;28;19929;-73
2022/01/04 09:34:22;;;;;;;;;;;12.00;99.90;;;;;;5033812;28;19928;-73
2022/01/04 09:36:48;;;;;;;;;;;12.20;99.90;;;;;;5034452;28;20412;-74
2022/01/04 09:39:21;;;;;;;;;;;12.20;99.90;;;;;;5033921;28;19920;-72
2022/01/04 09:41:55;;;;;;;;;;;12.30;99.90;;;;;;5018888;28;20027;-73
2022/01/04 09:44:27;;;;;;;;;;;12.30;99.90;;;;;;5034824;28;19927;-73
2022/01/04 09:47:02;;;;;;;;;;;12.40;99.90;;;;;;5051481;28;19921;-73
2022/01/04 09:49:34;;;;;;;;;;;12.40;99.90;;;;;;5034009;28;19943;-72
2022/01/04 09:52:08;;;;;;;;;;;12.40;99.90;;;;;;5035145;28;20012;-73
2022/01/04 09:54:37;;;;;;;;;;;12.40;99.90;;;;;;5017057;28;19974;-73
2022/01/04 09:57:09;;;;;;;;;;;12.30;99.90;;;;;;5033870;28;20028;-73
2022/01/04 09:59:40;;;;;;;;;;;12.30;99.90;;;;;;5051767;28;20638;-73
2022/01/04 10:02:17;;;;;;;;;;;12.20;99.90;;;;;;5033501;28;20015;-73
2022/01/04 10:04:48;;;;;;;;;;;12.10;99.90;;;;;;5034501;28;19975;-73
2022/01/04 10:07:23;;;;;;;;;;;12.00;99.90;;;;;;5018021;28;19992;-74
2022/01/04 10:09:55;;;;;;;;;;;11.90;99.90;;;;;;5051756;28;19924;-74
2022/01/04 10:12:22;;;;;;;;;;;11.80;99.90;;;;;;5033255;28;19962;-73
2022/01/04 10:14:55;;;;;;;;;;;11.80;99.90;;;;;;5033689;28;20288;-74
2022/01/04 10:17:28;;;;;;;;;;;12.00;99.90;;;;;;5033782;28;20460;-74
2022/01/04 10:19:56;;;;;;;;;;;12.10;99.90;;;;;;5051551;28;19967;-73
2022/01/04 10:22:31;;;;;;;;;;;12.20;99.90;;;;;;5032864;28;20015;-72
2022/01/04 10:25:01;;;;;;;;;;;12.30;99.90;;;;;;5033391;28;19920;-73
2022/01/04 10:27:34;;;;;;;;;;;12.50;99.90;;;;;;5033352;28;20660;-73
2022/01/04 10:30:09;;;;;;;;;;;12.50;99.90;;;;;;5033896;28;19974;-74
2022/01/04 10:32:45;;;;;;;;;;;12.50;99.90;;;;;;5033039;28;19955;-73
2022/01/04 10:35:35;;;;;;;;;;;12.50;99.90;;;;;;5034243;28;20016;-74
2022/01/04 10:38:09;;;;;;;;;;;12.60;99.90;;;;;;5033389;28;19948;-73
2022/01/04 10:40:37;;;;;;;;;;;12.60;99.90;;;;;;5033470;28;19921;-73
2022/01/04 10:43:16;;;;;;;;;;;12.70;99.90;;;;;;5033471;28;19964;-74
2022/01/04 10:45:48;;;;;;;;;;;12.70;99.90;;;;;;5033277;28;20003;-72
2022/01/04 10:48:21;;;;;;;;;;;12.80;99.90;;;;;;5051130;28;19921;-73
2022/01/04 10:50:54;;;;;;;;;;;12.90;99.90;;;;;;5033413;28;19956;-73
2022/01/04 10:53:23;;;;;;;;;;;12.90;99.90;;;;;;5030419;28;19960;-73
2022/01/04 10:55:56;;;;;;;;;;;13.00;99.90;;;;;;5017426;28;19979;-73
2022/01/04 10:58:29;;;;;;;;;;;13.20;99.90;;;;;;5032989;28;19952;-73
2022/01/04 11:00:58;;;;;;;;;;;13.20;99.90;;;;;;5033671;28;19966;-73
2022/01/04 11:03:27;;;;;;;;;;;13.30;99.90;;;;;;5016489;28;20027;-73
2022/01/04 11:05:58;;;;;;;;;;;13.40;99.90;;;;;;5050863;28;19924;-73
2022/01/04 11:08:25;;;;;;;;;;;13.50;99.90;;;;;;5033031;28;19967;-73
2022/01/04 11:10:58;;;;;;;;;;;13.70;99.90;;;;;;5053247;28;20028;-74
2022/01/04 11:13:25;;;;;;;;;;;13.70;99.90;;;;;;5018660;28;19925;-73
2022/01/04 11:15:56;;;;;;;;;;;13.80;99.90;;;;;;5030500;28;19956;-73
2022/01/04 11:18:25;;;;;;;;;;;13.90;99.90;;;;;;5029067;28;19967;-74
2022/01/04 11:20:51;;;;;;;;;;;14.00;99.90;;;;;;5000547;28;20012;-73
2022/01/04 11:23:22;;;;;;;;;;;14.00;99.90;;;;;;5032427;28;19970;-73
2022/01/04 11:25:54;;;;;;;;;;;14.00;99.90;;;;;;5017447;28;20345;-74
2022/01/04 11:28:21;;;;;;;;;;;14.10;99.90;;;;;;5032661;28;19921;-73
2022/01/04 11:30:53;;;;;;;;;;;14.10;99.90;;;;;;5033183;28;19993;-74
2022/01/04 11:33:27;;;;;;;;;;;14.20;99.90;;;;;;5032234;28;19925;-73
2022/01/04 11:35:59;;;;;;;;;;;14.20;99.90;;;;;;5032782;28;19935;-74
2022/01/04 11:38:32;;;;;;;;;;;14.20;99.90;;;;;;5033332;28;20432;-73
2022/01/04 11:41:04;;;;;;;;;;;14.30;99.90;;;;;;5017813;28;19921;-74
2022/01/04 11:43:40;;;;;;;;;;;14.30;99.90;;;;;;5049673;28;20377;-73
2022/01/04 11:46:07;;;;;;;;;;;14.20;99.90;;;;;;5053109;28;20075;-73
2022/01/04 11:48:42;;;;;;;;;;;14.20;99.90;;;;;;5035800;28;19921;-73
2022/01/04 11:51:28;;;;;;;;;;;14.30;99.90;;;;;;5020621;28;19927;-73
2022/01/04 11:54:28;;;;;;;;;;;14.30;99.90;;;;;;5053787;28;19924;-73
2022/01/04 11:57:05;;;;;;;;;;;14.30;99.90;;;;;;5003523;28;19951;-74
2022/01/04 11:59:43;;;;;;;;;;;14.30;99.90;;;;;;5020399;28;19964;-74
2022/01/04 12:02:33;;;;;;;;;;;14.30;99.90;;;;;;5035988;28;19971;-73
2022/01/04 12:05:15;;;;;;;;;;;14.40;99.90;;;;;;5036745;28;19931;-73
2022/01/04 12:07:48;;;;;;;;;;;14.40;99.90;;;;;;5036710;28;20331;-74
2022/01/04 12:10:18;;;;;;;;;;;14.60;99.90;;;;;;5036092;28;19924;-73
2022/01/04 12:13:04;;;;;;;;;;;14.70;99.90;;;;;;5035732;28;19947;-73
2022/01/04 12:15:33;;;;;;;;;;;14.80;99.90;;;;;;5035864;28;19921;-73
2022/01/04 12:18:09;;;;;;;;;;;14.90;99.90;;;;;;5062026;28;19924;-74
2022/01/04 12:20:41;;;;;;;;;;;14.90;99.90;;;;;;5056129;28;19920;-74
2022/01/04 12:23:23;;;;;;;;;;;14.80;99.90;;;;;;5046108;28;20420;-74
2022/01/04 12:26:16;;;;;;;;;;;14.90;99.90;;;;;;5053512;28;20007;-73
2022/01/04 12:28:54;;;;;;;;;;;14.90;99.90;;;;;;5036551;28;20007;-74
2022/01/04 12:31:27;;;;;;;;;;;14.90;99.90;;;;;;5035840;28;19924;-74
2022/01/04 12:34:03;;;;;;;;;;;14.90;99.90;;;;;;5034898;28;19986;-73
2022/01/04 12:36:40;;;;;;;;;;;14.80;99.90;;;;;;5035502;28;19943;-73
2022/01/04 12:39:14;;;;;;;;;;;14.90;99.90;;;;;;5034926;28;20335;-73
2022/01/04 12:41:41;;;;;;;;;;;14.90;99.90;;;;;;5035639;28;20015;-73
2022/01/04 12:44:09;;;;;;;;;;;14.90;99.90;;;;;;5034801;28;19920;-73
2022/01/04 12:46:42;;;;;;;;;;;14.80;99.90;;;;;;5019600;28;20019;-73
2022/01/04 12:49:13;;;;;;;;;;;14.80;99.90;;;;;;5052849;28;19956;-74
2022/01/04 12:51:44;;;;;;;;;;;14.80;99.90;;;;;;5034748;28;19920;-73
2022/01/04 12:54:17;;;;;;;;;;;14.70;99.90;;;;;;5034442;28;20024;-74
2022/01/04 12:56:56;;;;;;;;;;;14.60;99.90;;;;;;5035274;28;19921;-73
2022/01/04 12:59:28;;;;;;;;;;;14.40;99.90;;;;;;5034962;28;19921;-74
2022/01/04 13:02:01;;;;;;;;;;;14.40;99.90;;;;;;4999927;28;20328;-73
2022/01/04 13:04:34;;;;;;;;;;;14.30;99.90;;;;;;5034437;28;20019;-73
2022/01/04 13:07:02;;;;;;;;;;;14.10;99.90;;;;;;5018319;28;20562;-74
2022/01/04 13:09:34;;;;;;;;;;;14.10;99.90;;;;;;5035733;28;20007;-74
2022/01/04 13:12:06;;;;;;;;;;;14.00;99.90;;;;;;5020318;28;20438;-72
2022/01/04 13:14:37;;;;;;;;;;;14.00;99.90;;;;;;5034306;28;19975;-73
2022/01/04 13:17:08;;;;;;;;;;;13.90;99.90;;;;;;5033532;28;20361;-73
2022/01/04 13:19:36;;;;;;;;;;;13.90;99.90;;;;;;5034829;28;20360;-73
2022/01/04 13:22:15;;;;;;;;;;;13.80;99.90;;;;;;5035031;28;20671;-74
2022/01/04 13:24:52;;;;;;;;;;;13.80;99.90;;;;;;5014784;28;20285;-73
2022/01/04 13:27:27;;;;;;;;;;;13.70;99.90;;;;;;5033340;28;20345;-74
2022/01/04 13:29:55;;;;;;;;;;;13.70;99.90;;;;;;5034793;28;19979;-73
2022/01/04 13:32:28;;;;;;;;;;;13.60;99.90;;;;;;5018051;28;19972;-73
2022/01/04 13:35:03;;;;;;;;;;;13.60;99.90;;;;;;5052410;28;20448;-73
2022/01/04 13:37:30;;;;;;;;;;;13.50;99.90;;;;;;5017912;28;20452;-74
2022/01/04 13:39:57;;;;;;;;;;;13.40;99.90;;;;;;5034027;28;19948;-72
2022/01/04 13:42:34;;;;;;;;;;;13.30;99.90;;;;;;5051481;28;19932;-74
2022/01/04 13:45:04;;;;;;;;;;;13.40;99.90;;;;;;5017507;28;19978;-74
2022/01/04 13:47:32;;;;;;;;;;;13.30;99.90;;;;;;5017947;28;19967;-74
2022/01/04 13:50:16;;;;;;;;;;;13.30;99.90;;;;;;5018291;28;20007;-73
2022/01/04 13:52:53;;;;;;;;;;;13.40;99.90;;;;;;5051587;28;20038;-73
2022/01/04 13:55:20;;;;;;;;;;;13.30;99.90;;;;;;5034494;28;19971;-72
2022/01/04 13:57:52;;;;;;;;;;;13.20;99.90;;;;;;5034629;28;20450;-74
2022/01/04 14:00:28;;;;;;;;;;;13.10;99.90;;;;;;5034406;28;20456;-73
2022/01/04 14:03:00;;;;;;;;;;;13.00;99.90;;;;;;5032451;28;20427;-73
2022/01/04 14:05:36;;;;;;;;;;;12.90;99.90;;;;;;5051492;28;19929;-73
2022/01/04 14:08:03;;;;;;;;;;;12.70;99.90;;;;;;5033648;28;19928;-73
2022/01/04 14:10:45;;;;;;;;;;;12.50;99.90;;;;;;5017565;28;20285;-73
2022/01/04 14:13:32;;;;;;;;;;;12.40;99.90;;;;;;5050914;28;19965;-73
2022/01/04 14:16:04;;;;;;;;;;;12.30;99.90;;;;;;5019790;28;20027;-73
2022/01/04 14:18:32;;;;;;;;;;;12.10;99.90;;;;;;5035678;28;20435;-73
2022/01/04 14:21:03;;;;;;;;;;;12.10;99.90;;;;;;5035471;28;19920;-72
2022/01/04 14:23:31;;;;;;;;;;;12.00;99.90;;;;;;5032928;28;20018;-74
2022/01/04 14:26:05;;;;;;;;;;;11.90;99.90;;;;;;5033707;28;19995;-74
2022/01/04 14:28:32;;;;;;;;;;;11.80;99.90;;;;;;5033482;28;19967;-74
2022/01/04 14:31:04;;;;;;;;;;;11.80;99.90;;;;;;5033310;28;20024;-73
2022/01/04 14:33:31;;;;;;;;;;;11.80;99.90;;;;;;5016691;28;20304;-73
2022/01/04 14:36:02;;;;;;;;;;;11.80;99.90;;;;;;5033262;28;20587;-73
2022/01/04 14:38:34;;;;;;;;;;;11.70;99.90;;;;;;5033363;28;19921;-74
2022/01/04 14:41:01;;;;;;;;;;;11.60;99.90;;;;;;5017076;28;19928;-73
2022/01/04 14:43:32;;;;;;;;;;;11.60;99.90;;;;;;5033087;28;20000;-73
2022/01/04 14:46:04;;;;;;;;;;;11.60;99.90;;;;;;5033296;28;20448;-74
2022/01/04 14:48:31;;;;;;;;;;;11.60;99.90;;;;;;5017280;28;19928;-73
2022/01/04 14:50:58;;;;;;;;;;;11.60;99.90;;;;;;5032962;28;19982;-72
2022/01/04 14:53:25;;;;;;;;;;;11.60;99.90;;;;;;5016457;28;19968;-73
2022/01/04 14:55:52;;;;;;;;;;;11.40;99.90;;;;;;5050817;28;19952;-71
2022/01/04 14:58:19;;;;;;;;;;;11.50;99.90;;;;;;5032802;28;19968;-73